createdAt,value
2023-04-23T00:01:20.747Z,99.90
2023-04-23T00:06:27.008Z,99.90
2023-04-23T00:11:31.216Z,99.90
2023-04-23T00:16:39.010Z,99.90
2023-04-23T00:21:46.256Z,99.90
2023-04-23T00:26:49.482Z,99.90
2023-04-23T00:31:53.246Z,99.90
2023-04-23T00:37:01.550Z,99.90
2023-04-23T00:42:12.313Z,99.90
2023-04-23T00:47:17.111Z,99.90
2023-04-23T00:52:22.466Z,99.90
2023-04-23T00:57:27.075Z,99.90
2023-04-23T01:02:34.013Z,99.90
2023-04-23T01:07:39.395Z,99.90
2023-04-23T01:12:42.959Z,99.90
2023-04-23T01:17:46.711Z,99.90
2023-04-23T01:22:57.908Z,99.90
2023-04-23T01:28:02.932Z,99.90
2023-04-23T01:33:11.050Z,99.90
2023-04-23T01:38:24.757Z,99.90
2023-04-23T01:43:30.809Z,99.90
2023-04-23T01:48:34.805Z,99.90
2023-04-23T01:53:59.035Z,99.90
2023-04-23T01:59:08.640Z,99.90
2023-04-23T02:04:15.605Z,99.90
2023-04-23T02:09:24.575Z,99.90
2023-04-23T02:14:28.034Z,99.90
2023-04-23T02:19:35.012Z,99.90
2023-04-23T02:24:46.177Z,99.90
2023-04-23T02:29:55.462Z,99.90
2023-04-23T02:34:59.760Z,99.90
2023-04-23T02:40:06.866Z,99.90
2023-04-23T02:45:17.714Z,99.90
2023-04-23T02:50:22.352Z,99.90
2023-04-23T02:55:36.036Z,99.90
2023-04-23T03:00:39.485Z,99.90
2023-04-23T03:05:49.307Z,99.90
2023-04-23T03:10:54.186Z,99.90
2023-04-23T03:15:57.953Z,99.90
2023-04-23T03:21:03.419Z,99.90
2023-04-23T03:26:10.005Z,99.90
2023-04-23T03:31:18.531Z,99.90
2023-04-23T03:36:22.795Z,99.90
2023-04-23T03:41:30.714Z,99.90
2023-04-23T03:46:35.129Z,99.90
2023-04-23T03:51:44.355Z,99.90
2023-04-23T03:56:49.294Z,99.90
2023-04-23T04:01:52.789Z,99.90
2023-04-23T04:06:56.205Z,99.90
2023-04-23T04:12:01.876Z,99.90
2023-04-23T04:17:09.064Z,99.90
2023-04-23T04:22:12.566Z,99.90
2023-04-23T04:27:19.783Z,99.90
2023-04-23T04:32:26.444Z,99.90
2023-04-23T04:37:33.881Z,99.90
2023-04-23T04:42:40.904Z,99.90
2023-04-23T04:47:44.207Z,99.90
2023-04-23T04:52:47.568Z,99.90
2023-04-23T04:57:56.066Z,99.90
2023-04-23T05:03:00.099Z,99.90
2023-04-23T05:08:03.542Z,99.90
2023-04-23T05:13:08.476Z,99.90
2023-04-23T05:18:12.326Z,99.90
2023-04-23T05:23:15.887Z,99.90
2023-04-23T05:28:21.816Z,99.90
2023-04-23T05:33:27.024Z,99.90
2023-04-23T05:38:33.924Z,99.90
2023-04-23T05:43:38.895Z,99.90
2023-04-23T05:48:42.070Z,99.90
2023-04-23T05:53:45.345Z,99.90
2023-04-23T05:58:50.123Z,99.90
2023-04-23T06:03:53.552Z,99.90
2023-04-23T06:08:57.003Z,99.90
2023-04-23T06:14:01.786Z,99.90
2023-04-23T06:19:05.231Z,99.90
2023-04-23T06:24:10.343Z,99.90
2023-04-23T06:29:17.788Z,99.90
2023-04-23T06:34:22.009Z,99.90
2023-04-23T06:39:25.292Z,99.90
2023-04-23T06:44:29.984Z,99.90
2023-04-23T06:49:33.523Z,99.90
2023-04-23T06:54:39.253Z,99.90
2023-04-23T06:59:44.150Z,99.90
2023-04-23T07:04:48.956Z,99.90
2023-04-23T07:09:52.106Z,99.90
2023-04-23T07:14:56.897Z,99.90
2023-04-23T07:20:00.229Z,99.90
2023-04-23T07:25:07.891Z,99.90
2023-04-23T07:30:13.759Z,99.10
2023-04-23T07:35:17.180Z,99.20
2023-04-23T07:40:21.765Z,99.50
2023-04-23T07:45:27.464Z,95.00
2023-04-23T07:50:31.678Z,97.60
2023-04-23T07:55:34.953Z,99.30
2023-04-23T08:00:39.694Z,96.90
2023-04-23T08:05:43.183Z,97.20
2023-04-23T08:10:48.146Z,96.30
2023-04-23T08:15:53.115Z,98.70
2023-04-23T08:20:57.585Z,97.80
2023-04-23T08:26:01.300Z,98.50
2023-04-23T08:31:18.975Z,99.90
2023-04-23T08:36:27.667Z,99.90
2023-04-23T08:41:38.191Z,99.90
2023-04-23T08:46:45.584Z,99.90
2023-04-23T08:51:55.588Z,99.90
2023-04-23T08:57:02.033Z,98.00
2023-04-23T09:02:10.252Z,99.90
2023-04-23T09:07:15.383Z,99.90
2023-04-23T09:12:18.768Z,98.40
2023-04-23T09:17:25.323Z,98.80
2023-04-23T09:22:45.987Z,96.50
2023-04-23T09:27:53.231Z,94.90
2023-04-23T09:32:58.174Z,95.10
2023-04-23T09:38:07.087Z,96.10
2023-04-23T09:43:12.150Z,97.30
2023-04-23T09:48:18.439Z,99.20
2023-04-23T09:53:21.998Z,96.70
2023-04-23T09:58:28.833Z,94.60
2023-04-23T10:03:35.240Z,95.00
2023-04-23T10:08:40.634Z,96.20
2023-04-23T10:13:49.439Z,96.30
2023-04-23T10:18:56.088Z,96.30
2023-04-23T10:24:03.374Z,97.70
2023-04-23T10:29:08.577Z,97.50
2023-04-23T10:34:15.203Z,97.50
2023-04-23T10:39:27.462Z,97.40
2023-04-23T10:49:46.154Z,97.90
2023-04-23T10:54:58.099Z,96.80
2023-04-23T11:00:06.156Z,97.60
2023-04-23T11:05:12.668Z,98.70
2023-04-23T11:10:16.917Z,98.80
2023-04-23T11:15:22.200Z,97.30
2023-04-23T11:20:27.261Z,98.40
2023-04-23T11:25:31.187Z,98.60
2023-04-23T11:30:34.546Z,98.00
2023-04-23T11:35:42.496Z,98.80
2023-04-23T11:40:49.391Z,98.20
2023-04-23T11:45:53.406Z,96.40
2023-04-23T11:50:58.614Z,99.60
2023-04-23T11:56:02.310Z,99.30
2023-04-23T12:01:07.301Z,98.40
2023-04-23T12:06:13.398Z,99.90
2023-04-23T12:11:18.205Z,98.10
2023-04-23T12:16:35.681Z,98.60
2023-04-23T12:21:55.293Z,98.70
2023-04-23T12:27:02.976Z,99.90
2023-04-23T12:32:11.645Z,99.10
2023-04-23T12:37:18.466Z,99.90
2023-04-23T12:42:22.488Z,99.90
2023-04-23T12:47:26.090Z,99.90
2023-04-23T12:52:32.262Z,99.90
2023-04-23T12:57:35.602Z,98.00
2023-04-23T13:02:39.792Z,99.90
2023-04-23T13:07:44.899Z,99.90
2023-04-23T13:12:48.314Z,99.90
2023-04-23T13:17:51.648Z,99.90
2023-04-23T13:22:56.182Z,99.90
2023-04-23T13:27:59.526Z,99.90
2023-04-23T13:33:02.948Z,99.90
2023-04-23T13:38:07.937Z,99.90
2023-04-23T13:43:11.235Z,99.90
2023-04-23T13:48:18.098Z,99.90
2023-04-23T13:53:22.955Z,99.90
2023-04-23T13:58:26.717Z,99.90
2023-04-23T14:03:31.125Z,99.90
2023-04-23T14:08:36.972Z,99.90
2023-04-23T14:13:40.250Z,98.30
2023-04-23T14:18:43.343Z,98.30
2023-04-23T14:23:56.351Z,98.70
2023-04-23T14:29:04.417Z,99.90
2023-04-23T14:34:11.530Z,99.90
2023-04-23T14:39:16.320Z,99.90
2023-04-23T14:44:19.730Z,99.90
2023-04-23T14:49:23.210Z,99.90
2023-04-23T14:54:28.744Z,99.90
2023-04-23T14:59:32.073Z,99.90
2023-04-23T15:04:36.705Z,99.90
2023-04-23T15:09:42.028Z,99.90
2023-04-23T15:14:48.963Z,99.90
2023-04-23T15:19:54.514Z,99.90
2023-04-23T15:24:59.263Z,99.90
2023-04-23T15:30:02.633Z,99.90
2023-04-23T15:35:10.559Z,99.90
2023-04-23T15:40:17.891Z,99.90
2023-04-23T15:45:30.090Z,99.90
2023-04-23T15:50:36.685Z,99.90
2023-04-23T15:55:44.006Z,99.90
2023-04-23T16:00:47.568Z,99.90
2023-04-23T16:05:52.351Z,99.90
2023-04-23T16:10:58.364Z,99.90
2023-04-23T16:16:02.908Z,99.90
2023-04-23T16:21:11.020Z,99.90
2023-04-23T16:26:22.022Z,99.90
2023-04-23T16:31:25.385Z,99.90
2023-04-23T16:36:28.764Z,99.90
2023-04-23T16:41:36.736Z,99.90
2023-04-23T16:46:42.153Z,99.90
2023-04-23T16:51:47.649Z,99.90
2023-04-23T16:56:52.594Z,99.90
2023-04-23T17:01:56.244Z,99.90
2023-04-23T17:07:00.355Z,99.90
2023-04-23T17:12:05.224Z,99.90
2023-04-23T17:17:09.725Z,99.90
2023-04-23T17:22:13.179Z,99.90
2023-04-23T17:27:20.673Z,99.90
2023-04-23T17:32:25.198Z,99.90
2023-04-23T17:37:28.533Z,99.90
2023-04-23T17:42:35.294Z,99.90
2023-04-23T17:47:40.940Z,99.90
2023-04-23T17:52:45.303Z,99.90
2023-04-23T17:57:52.623Z,99.90
2023-04-23T18:02:56.366Z,99.90
2023-04-23T18:08:05.450Z,99.90
2023-04-23T18:13:11.861Z,99.90
2023-04-23T18:18:15.363Z,99.90
2023-04-23T18:23:20.712Z,99.90
2023-04-23T18:28:25.484Z,99.90
2023-04-23T18:33:32.993Z,99.90
2023-04-23T18:38:45.237Z,99.90
2023-04-23T18:43:49.991Z,99.90
2023-04-23T18:48:55.114Z,99.90
2023-04-23T18:53:59.023Z,99.90
2023-04-23T18:59:06.698Z,99.90
2023-04-23T19:04:10.903Z,99.90
2023-04-23T19:09:20.922Z,99.90
2023-04-23T19:14:25.857Z,99.90
2023-04-23T19:19:32.788Z,99.90
2023-04-23T19:24:37.442Z,99.90
2023-04-23T19:29:59.022Z,99.90
2023-04-23T19:35:02.662Z,99.90
2023-04-23T19:40:08.758Z,99.90
2023-04-23T19:45:21.920Z,99.90
2023-04-23T19:50:28.574Z,99.90
2023-04-23T19:55:40.247Z,99.90
2023-04-23T20:00:47.328Z,99.90
2023-04-23T20:05:54.207Z,99.90
2023-04-23T20:10:58.476Z,99.90
2023-04-23T20:16:04.363Z,99.90
2023-04-23T20:21:09.489Z,99.90
2023-04-23T20:26:12.945Z,99.90
2023-04-23T20:31:26.194Z,99.90
2023-04-23T20:42:01.080Z,99.90
2023-04-23T20:47:08.694Z,99.90
2023-04-23T20:52:15.522Z,99.90
2023-04-23T20:57:19.129Z,99.90
2023-04-23T21:02:24.180Z,99.90
2023-04-23T21:07:28.981Z,99.90
2023-04-23T21:12:33.120Z,99.90
2023-04-23T21:17:37.867Z,99.90
2023-04-23T21:22:41.256Z,99.90
2023-04-23T21:27:48.583Z,99.90
2023-04-23T21:32:55.124Z,99.90
2023-04-23T21:37:58.557Z,99.90
2023-04-23T21:43:03.592Z,99.90
2023-04-23T21:48:09.735Z,99.90
2023-04-23T21:53:14.993Z,99.90
2023-04-23T21:58:18.415Z,99.90
2023-04-23T22:03:37.466Z,99.90
2023-04-23T22:08:50.079Z,99.90
2023-04-23T22:13:56.027Z,99.90
2023-04-23T22:19:02.472Z,99.90
2023-04-23T22:24:07.333Z,99.90
2023-04-23T22:29:10.856Z,99.90
2023-04-23T22:34:21.751Z,99.90
2023-04-23T22:39:25.070Z,99.90
2023-04-23T22:44:31.651Z,99.90
2023-04-23T22:49:37.617Z,99.90
2023-04-23T22:54:45.242Z,99.90
2023-04-23T22:59:49.626Z,99.90
2023-04-23T23:04:56.118Z,99.90
2023-04-23T23:09:59.548Z,99.90
2023-04-23T23:15:04.312Z,99.90
2023-04-23T23:20:12.518Z,99.90
2023-04-23T23:25:17.149Z,99.90
2023-04-23T23:30:20.654Z,99.90
2023-04-23T23:35:29.488Z,99.90
2023-04-23T23:40:34.351Z,99.90
2023-04-23T23:45:37.806Z,99.90
2023-04-23T23:50:42.708Z,99.90
2023-04-23T23:55:47.051Z,99.90
